sensor_id;sensor_type;location;lat;lon;timestamp;P1;durP1;ratioP1;P2;durP2;ratioP2
37719;SDS011;23567;50.156;7.700;2024-02-15T00:01:26;2.53;;;0.97;;
37719;SDS011;23567;50.156;7.700;2024-02-15T00:03:51;1.63;;;1.10;;
37719;SDS011;23567;50.156;7.700;2024-02-15T00:06:16;1.20;;;0.70;;
37719;SDS011;23567;50.156;7.700;2024-02-15T00:08:42;1.77;;;1.00;;
37719;SDS011;23567;50.156;7.700;2024-02-15T00:11:07;1.37;;;0.90;;
37719;SDS011;23567;50.156;7.700;2024-02-15T00:13:34;4.60;;;1.27;;
37719;SDS011;23567;50.156;7.700;2024-02-15T00:16:01;3.72;;;1.17;;
37719;SDS011;23567;50.156;7.700;2024-02-15T00:18:26;4.35;;;1.30;;
37719;SDS011;23567;50.156;7.700;2024-02-15T00:20:52;1.98;;;1.10;;
37719;SDS011;23567;50.156;7.700;2024-02-15T00:23:17;1.47;;;0.90;;
37719;SDS011;23567;50.156;7.700;2024-02-15T00:25:42;0.80;;;0.70;;
37719;SDS011;23567;50.156;7.700;2024-02-15T00:28:09;1.87;;;1.00;;
37719;SDS011;23567;50.156;7.700;2024-02-15T00:30:35;1.20;;;0.90;;
37719;SDS011;23567;50.156;7.700;2024-02-15T00:33:01;3.38;;;1.23;;
37719;SDS011;23567;50.156;7.700;2024-02-15T00:35:28;5.55;;;1.08;;
37719;SDS011;23567;50.156;7.700;2024-02-15T00:37:53;2.77;;;0.97;;
37719;SDS011;23567;50.156;7.700;2024-02-15T00:40:18;2.97;;;1.20;;
37719;SDS011;23567;50.156;7.700;2024-02-15T00:42:43;0.90;;;0.70;;
37719;SDS011;23567;50.156;7.700;2024-02-15T00:45:09;2.30;;;1.00;;
37719;SDS011;23567;50.156;7.700;2024-02-15T00:47:34;1.63;;;0.80;;
37719;SDS011;23567;50.156;7.700;2024-02-15T00:49:59;3.07;;;1.20;;
37719;SDS011;23567;50.156;7.700;2024-02-15T00:52:24;3.77;;;0.93;;
37719;SDS011;23567;50.156;7.700;2024-02-15T00:54:50;2.33;;;1.33;;
37719;SDS011;23567;50.156;7.700;2024-02-15T00:57:16;2.10;;;0.90;;
37719;SDS011;23567;50.156;7.700;2024-02-15T00:59:41;4.77;;;0.93;;
37719;SDS011;23567;50.156;7.700;2024-02-15T01:02:06;2.53;;;0.90;;
37719;SDS011;23567;50.156;7.700;2024-02-15T01:04:31;2.07;;;1.07;;
37719;SDS011;23567;50.156;7.700;2024-02-15T01:06:57;1.87;;;0.90;;
37719;SDS011;23567;50.156;7.700;2024-02-15T01:09:22;4.37;;;1.30;;
37719;SDS011;23567;50.156;7.700;2024-02-15T01:11:47;2.10;;;0.90;;
37719;SDS011;23567;50.156;7.700;2024-02-15T01:14:13;1.37;;;0.83;;
37719;SDS011;23567;50.156;7.700;2024-02-15T01:16:38;2.63;;;0.90;;
37719;SDS011;23567;50.156;7.700;2024-02-15T01:19:03;2.47;;;0.93;;
37719;SDS011;23567;50.156;7.700;2024-02-15T01:21:29;1.97;;;0.90;;
37719;SDS011;23567;50.156;7.700;2024-02-15T01:23:55;1.35;;;0.80;;
37719;SDS011;23567;50.156;7.700;2024-02-15T01:26:20;1.73;;;0.80;;
37719;SDS011;23567;50.156;7.700;2024-02-15T01:28:45;1.67;;;0.97;;
37719;SDS011;23567;50.156;7.700;2024-02-15T01:31:10;3.73;;;0.80;;
37719;SDS011;23567;50.156;7.700;2024-02-15T01:33:39;3.17;;;0.97;;
37719;SDS011;23567;50.156;7.700;2024-02-15T01:36:04;3.47;;;1.13;;
37719;SDS011;23567;50.156;7.700;2024-02-15T01:38:29;1.90;;;0.77;;
37719;SDS011;23567;50.156;7.700;2024-02-15T01:40:55;3.87;;;1.00;;
37719;SDS011;23567;50.156;7.700;2024-02-15T01:43:20;1.97;;;1.00;;
37719;SDS011;23567;50.156;7.700;2024-02-15T01:45:45;1.60;;;0.80;;
37719;SDS011;23567;50.156;7.700;2024-02-15T01:48:12;1.25;;;0.75;;
37719;SDS011;23567;50.156;7.700;2024-02-15T01:50:38;2.85;;;0.90;;
37719;SDS011;23567;50.156;7.700;2024-02-15T01:53:04;2.00;;;0.77;;
37719;SDS011;23567;50.156;7.700;2024-02-15T01:55:30;1.63;;;0.75;;
37719;SDS011;23567;50.156;7.700;2024-02-15T01:57:55;3.60;;;0.97;;
37719;SDS011;23567;50.156;7.700;2024-02-15T02:00:20;1.90;;;0.70;;
37719;SDS011;23567;50.156;7.700;2024-02-15T02:02:46;2.38;;;0.98;;
37719;SDS011;23567;50.156;7.700;2024-02-15T02:05:12;1.57;;;0.90;;
37719;SDS011;23567;50.156;7.700;2024-02-15T02:07:37;3.57;;;1.27;;
37719;SDS011;23567;50.156;7.700;2024-02-15T02:10:03;2.10;;;1.10;;
37719;SDS011;23567;50.156;7.700;2024-02-15T02:12:28;2.53;;;0.90;;
37719;SDS011;23567;50.156;7.700;2024-02-15T02:14:54;3.43;;;1.10;;
37719;SDS011;23567;50.156;7.700;2024-02-15T02:17:19;1.90;;;0.97;;
37719;SDS011;23567;50.156;7.700;2024-02-15T02:19:45;1.67;;;0.93;;
37719;SDS011;23567;50.156;7.700;2024-02-15T02:22:10;1.33;;;0.83;;
37719;SDS011;23567;50.156;7.700;2024-02-15T02:24:40;1.90;;;0.70;;
37719;SDS011;23567;50.156;7.700;2024-02-15T02:27:06;2.15;;;1.02;;
37719;SDS011;23567;50.156;7.700;2024-02-15T02:29:32;1.20;;;0.60;;
37719;SDS011;23567;50.156;7.700;2024-02-15T02:31:58;1.60;;;0.80;;
37719;SDS011;23567;50.156;7.700;2024-02-15T02:34:23;2.87;;;0.63;;
37719;SDS011;23567;50.156;7.700;2024-02-15T02:36:49;1.83;;;0.75;;
37719;SDS011;23567;50.156;7.700;2024-02-15T02:39:15;2.80;;;0.90;;
37719;SDS011;23567;50.156;7.700;2024-02-15T02:41:41;0.75;;;0.60;;
37719;SDS011;23567;50.156;7.700;2024-02-15T02:44:07;1.42;;;0.50;;
37719;SDS011;23567;50.156;7.700;2024-02-15T02:46:32;1.20;;;0.87;;
37719;SDS011;23567;50.156;7.700;2024-02-15T02:48:58;1.70;;;0.80;;
37719;SDS011;23567;50.156;7.700;2024-02-15T02:51:23;1.37;;;0.87;;
37719;SDS011;23567;50.156;7.700;2024-02-15T02:53:48;2.63;;;0.60;;
37719;SDS011;23567;50.156;7.700;2024-02-15T02:56:13;0.90;;;0.50;;
37719;SDS011;23567;50.156;7.700;2024-02-15T02:58:38;2.37;;;0.90;;
37719;SDS011;23567;50.156;7.700;2024-02-15T03:01:07;1.15;;;0.57;;
37719;SDS011;23567;50.156;7.700;2024-02-15T03:03:33;1.23;;;0.80;;
37719;SDS011;23567;50.156;7.700;2024-02-15T03:05:58;2.47;;;0.87;;
37719;SDS011;23567;50.156;7.700;2024-02-15T03:08:24;0.60;;;0.50;;
37719;SDS011;23567;50.156;7.700;2024-02-15T03:10:49;2.03;;;0.80;;
37719;SDS011;23567;50.156;7.700;2024-02-15T03:13:14;1.63;;;0.80;;
37719;SDS011;23567;50.156;7.700;2024-02-15T03:15:40;2.77;;;0.87;;
37719;SDS011;23567;50.156;7.700;2024-02-15T03:18:06;1.10;;;0.60;;
37719;SDS011;23567;50.156;7.700;2024-02-15T03:20:32;1.60;;;0.70;;
37719;SDS011;23567;50.156;7.700;2024-02-15T03:22:59;1.25;;;0.60;;
37719;SDS011;23567;50.156;7.700;2024-02-15T03:25:24;1.00;;;0.60;;
37719;SDS011;23567;50.156;7.700;2024-02-15T03:27:50;2.30;;;0.73;;
37719;SDS011;23567;50.156;7.700;2024-02-15T03:30:18;3.40;;;0.60;;
37719;SDS011;23567;50.156;7.700;2024-02-15T03:32:47;2.83;;;0.90;;
37719;SDS011;23567;50.156;7.700;2024-02-15T03:35:13;1.13;;;0.70;;
37719;SDS011;23567;50.156;7.700;2024-02-15T03:37:39;1.25;;;0.80;;
37719;SDS011;23567;50.156;7.700;2024-02-15T03:40:05;1.53;;;0.73;;
37719;SDS011;23567;50.156;7.700;2024-02-15T03:42:30;2.38;;;0.60;;
37719;SDS011;23567;50.156;7.700;2024-02-15T03:44:55;2.30;;;0.50;;
37719;SDS011;23567;50.156;7.700;2024-02-15T03:47:21;1.30;;;0.80;;
37719;SDS011;23567;50.156;7.700;2024-02-15T03:49:46;1.50;;;0.60;;
37719;SDS011;23567;50.156;7.700;2024-02-15T03:52:11;0.50;;;0.50;;
37719;SDS011;23567;50.156;7.700;2024-02-15T03:54:36;0.80;;;0.70;;
37719;SDS011;23567;50.156;7.700;2024-02-15T03:57:02;1.30;;;0.70;;
37719;SDS011;23567;50.156;7.700;2024-02-15T03:59:27;1.00;;;0.60;;
37719;SDS011;23567;50.156;7.700;2024-02-15T04:01:53;1.58;;;0.65;;
37719;SDS011;23567;50.156;7.700;2024-02-15T04:04:18;1.48;;;0.70;;
37719;SDS011;23567;50.156;7.700;2024-02-15T04:06:46;0.57;;;0.47;;
37719;SDS011;23567;50.156;7.700;2024-02-15T04:09:11;2.60;;;0.70;;
37719;SDS011;23567;50.156;7.700;2024-02-15T04:11:36;1.67;;;0.77;;
37719;SDS011;23567;50.156;7.700;2024-02-15T04:14:03;1.63;;;0.50;;
37719;SDS011;23567;50.156;7.700;2024-02-15T04:16:28;1.10;;;0.77;;
37719;SDS011;23567;50.156;7.700;2024-02-15T04:18:55;2.10;;;0.80;;
37719;SDS011;23567;50.156;7.700;2024-02-15T04:21:22;1.87;;;0.63;;
37719;SDS011;23567;50.156;7.700;2024-02-15T04:23:47;1.07;;;0.70;;
37719;SDS011;23567;50.156;7.700;2024-02-15T04:26:13;1.40;;;0.90;;
37719;SDS011;23567;50.156;7.700;2024-02-15T04:28:39;1.90;;;0.63;;
37719;SDS011;23567;50.156;7.700;2024-02-15T04:31:04;1.15;;;0.95;;
37719;SDS011;23567;50.156;7.700;2024-02-15T04:33:33;1.50;;;0.70;;
37719;SDS011;23567;50.156;7.700;2024-02-15T04:35:58;1.90;;;0.60;;
37719;SDS011;23567;50.156;7.700;2024-02-15T04:38:23;0.50;;;0.50;;
37719;SDS011;23567;50.156;7.700;2024-02-15T04:40:50;2.22;;;0.70;;
37719;SDS011;23567;50.156;7.700;2024-02-15T04:43:16;1.95;;;0.80;;
37719;SDS011;23567;50.156;7.700;2024-02-15T04:45:41;1.73;;;0.70;;
37719;SDS011;23567;50.156;7.700;2024-02-15T04:48:06;1.90;;;0.70;;
37719;SDS011;23567;50.156;7.700;2024-02-15T04:50:32;0.80;;;0.60;;
37719;SDS011;23567;50.156;7.700;2024-02-15T04:52:57;1.30;;;0.70;;
37719;SDS011;23567;50.156;7.700;2024-02-15T04:55:22;1.47;;;0.70;;
37719;SDS011;23567;50.156;7.700;2024-02-15T04:57:48;0.87;;;0.60;;
37719;SDS011;23567;50.156;7.700;2024-02-15T05:00:14;1.13;;;0.57;;
37719;SDS011;23567;50.156;7.700;2024-02-15T05:02:40;0.83;;;0.60;;
37719;SDS011;23567;50.156;7.700;2024-02-15T05:05:08;1.60;;;0.50;;
37719;SDS011;23567;50.156;7.700;2024-02-15T05:07:33;1.35;;;0.60;;
37719;SDS011;23567;50.156;7.700;2024-02-15T05:09:59;1.00;;;0.63;;
37719;SDS011;23567;50.156;7.700;2024-02-15T05:12:27;0.45;;;0.40;;
37719;SDS011;23567;50.156;7.700;2024-02-15T05:14:52;0.60;;;0.50;;
37719;SDS011;23567;50.156;7.700;2024-02-15T05:17:18;0.60;;;0.47;;
37719;SDS011;23567;50.156;7.700;2024-02-15T05:19:43;1.23;;;0.40;;
37719;SDS011;23567;50.156;7.700;2024-02-15T05:22:08;2.10;;;0.93;;
37719;SDS011;23567;50.156;7.700;2024-02-15T05:24:36;1.50;;;0.52;;
37719;SDS011;23567;50.156;7.700;2024-02-15T05:27:03;1.65;;;0.70;;
37719;SDS011;23567;50.156;7.700;2024-02-15T05:29:29;1.45;;;0.55;;
37719;SDS011;23567;50.156;7.700;2024-02-15T05:31:58;3.35;;;0.95;;
37719;SDS011;23567;50.156;7.700;2024-02-15T05:34:24;1.20;;;0.73;;
37719;SDS011;23567;50.156;7.700;2024-02-15T05:36:49;1.90;;;0.70;;
37719;SDS011;23567;50.156;7.700;2024-02-15T05:39:14;1.43;;;0.70;;
37719;SDS011;23567;50.156;7.700;2024-02-15T05:41:40;1.02;;;0.60;;
37719;SDS011;23567;50.156;7.700;2024-02-15T05:44:05;1.50;;;0.57;;
37719;SDS011;23567;50.156;7.700;2024-02-15T05:46:31;1.83;;;0.57;;
37719;SDS011;23567;50.156;7.700;2024-02-15T05:48:57;2.17;;;1.33;;
37719;SDS011;23567;50.156;7.700;2024-02-15T05:51:22;3.60;;;0.97;;
37719;SDS011;23567;50.156;7.700;2024-02-15T05:53:48;1.83;;;1.00;;
37719;SDS011;23567;50.156;7.700;2024-02-15T05:56:14;1.90;;;0.93;;
37719;SDS011;23567;50.156;7.700;2024-02-15T05:58:39;2.73;;;0.90;;
37719;SDS011;23567;50.156;7.700;2024-02-15T06:01:05;6.93;;;0.90;;
37719;SDS011;23567;50.156;7.700;2024-02-15T06:03:32;3.07;;;1.13;;
37719;SDS011;23567;50.156;7.700;2024-02-15T06:05:59;1.10;;;0.68;;
37719;SDS011;23567;50.156;7.700;2024-02-15T06:08:28;1.63;;;0.60;;
37719;SDS011;23567;50.156;7.700;2024-02-15T06:10:54;2.13;;;0.80;;
37719;SDS011;23567;50.156;7.700;2024-02-15T06:13:20;9.80;;;1.57;;
37719;SDS011;23567;50.156;7.700;2024-02-15T06:15:45;4.27;;;1.17;;
37719;SDS011;23567;50.156;7.700;2024-02-15T06:18:14;4.40;;;1.35;;
37719;SDS011;23567;50.156;7.700;2024-02-15T06:20:41;2.45;;;1.05;;
37719;SDS011;23567;50.156;7.700;2024-02-15T06:23:07;5.13;;;1.10;;
37719;SDS011;23567;50.156;7.700;2024-02-15T06:25:33;3.23;;;1.30;;
37719;SDS011;23567;50.156;7.700;2024-02-15T06:27:59;2.97;;;1.13;;
37719;SDS011;23567;50.156;7.700;2024-02-15T06:30:27;3.80;;;0.87;;
37719;SDS011;23567;50.156;7.700;2024-02-15T06:33:11;6.10;;;1.03;;
37719;SDS011;23567;50.156;7.700;2024-02-15T06:35:55;6.95;;;1.20;;
37719;SDS011;23567;50.156;7.700;2024-02-15T06:38:39;3.90;;;0.95;;
37719;SDS011;23567;50.156;7.700;2024-02-15T06:41:23;6.95;;;1.15;;
37719;SDS011;23567;50.156;7.700;2024-02-15T06:43:49;3.72;;;1.13;;
37719;SDS011;23567;50.156;7.700;2024-02-15T06:46:14;3.10;;;1.10;;
37719;SDS011;23567;50.156;7.700;2024-02-15T06:48:41;1.80;;;1.10;;
37719;SDS011;23567;50.156;7.700;2024-02-15T06:51:09;1.75;;;1.00;;
37719;SDS011;23567;50.156;7.700;2024-02-15T06:53:38;5.07;;;0.97;;
37719;SDS011;23567;50.156;7.700;2024-02-15T06:56:04;2.65;;;1.42;;
37719;SDS011;23567;50.156;7.700;2024-02-15T06:58:29;1.95;;;0.70;;
37719;SDS011;23567;50.156;7.700;2024-02-15T07:00:54;3.93;;;1.20;;
37719;SDS011;23567;50.156;7.700;2024-02-15T07:03:19;5.13;;;1.23;;
37719;SDS011;23567;50.156;7.700;2024-02-15T07:05:47;4.68;;;1.33;;
37719;SDS011;23567;50.156;7.700;2024-02-15T07:08:13;5.13;;;1.37;;
37719;SDS011;23567;50.156;7.700;2024-02-15T07:10:39;5.33;;;1.33;;
37719;SDS011;23567;50.156;7.700;2024-02-15T07:13:05;6.93;;;1.23;;
37719;SDS011;23567;50.156;7.700;2024-02-15T07:15:31;2.60;;;1.00;;
37719;SDS011;23567;50.156;7.700;2024-02-15T07:17:58;2.92;;;1.20;;
37719;SDS011;23567;50.156;7.700;2024-02-15T07:20:23;4.53;;;1.40;;
37719;SDS011;23567;50.156;7.700;2024-02-15T07:22:48;2.33;;;1.10;;
37719;SDS011;23567;50.156;7.700;2024-02-15T07:25:13;11.77;;;1.40;;
37719;SDS011;23567;50.156;7.700;2024-02-15T07:27:39;2.30;;;1.40;;
37719;SDS011;23567;50.156;7.700;2024-02-15T07:30:04;4.60;;;1.30;;
37719;SDS011;23567;50.156;7.700;2024-02-15T07:32:31;3.97;;;2.25;;
37719;SDS011;23567;50.156;7.700;2024-02-15T07:34:57;4.15;;;1.38;;
37719;SDS011;23567;50.156;7.700;2024-02-15T07:37:22;2.88;;;1.30;;
37719;SDS011;23567;50.156;7.700;2024-02-15T07:39:51;3.25;;;1.35;;
37719;SDS011;23567;50.156;7.700;2024-02-15T07:42:16;2.83;;;1.30;;
37719;SDS011;23567;50.156;7.700;2024-02-15T07:44:41;3.40;;;1.40;;
37719;SDS011;23567;50.156;7.700;2024-02-15T07:47:07;4.22;;;1.65;;
37719;SDS011;23567;50.156;7.700;2024-02-15T07:49:34;6.88;;;1.63;;
37719;SDS011;23567;50.156;7.700;2024-02-15T07:51:59;2.65;;;1.33;;
37719;SDS011;23567;50.156;7.700;2024-02-15T07:54:25;2.30;;;1.17;;
37719;SDS011;23567;50.156;7.700;2024-02-15T07:56:50;2.53;;;1.17;;
37719;SDS011;23567;50.156;7.700;2024-02-15T07:59:16;4.27;;;1.40;;
37719;SDS011;23567;50.156;7.700;2024-02-15T08:01:42;4.10;;;1.50;;
37719;SDS011;23567;50.156;7.700;2024-02-15T08:04:07;5.85;;;1.55;;
37719;SDS011;23567;50.156;7.700;2024-02-15T08:06:33;1.70;;;0.98;;
37719;SDS011;23567;50.156;7.700;2024-02-15T08:08:58;3.63;;;1.30;;
37719;SDS011;23567;50.156;7.700;2024-02-15T08:11:23;1.48;;;1.00;;
37719;SDS011;23567;50.156;7.700;2024-02-15T08:13:51;6.30;;;1.20;;
37719;SDS011;23567;50.156;7.700;2024-02-15T08:16:19;2.10;;;1.17;;
37719;SDS011;23567;50.156;7.700;2024-02-15T08:18:47;2.38;;;1.10;;
37719;SDS011;23567;50.156;7.700;2024-02-15T08:21:12;1.87;;;1.20;;
37719;SDS011;23567;50.156;7.700;2024-02-15T08:23:38;2.13;;;1.17;;
37719;SDS011;23567;50.156;7.700;2024-02-15T08:26:03;2.20;;;1.42;;
37719;SDS011;23567;50.156;7.700;2024-02-15T08:28:28;2.58;;;0.90;;
37719;SDS011;23567;50.156;7.700;2024-02-15T08:30:57;4.88;;;1.42;;
37719;SDS011;23567;50.156;7.700;2024-02-15T08:33:22;1.33;;;1.10;;
37719;SDS011;23567;50.156;7.700;2024-02-15T08:35:48;2.40;;;1.02;;
37719;SDS011;23567;50.156;7.700;2024-02-15T08:38:13;1.67;;;1.13;;
37719;SDS011;23567;50.156;7.700;2024-02-15T08:40:39;1.43;;;1.07;;
37719;SDS011;23567;50.156;7.700;2024-02-15T08:43:04;4.57;;;1.27;;
37719;SDS011;23567;50.156;7.700;2024-02-15T08:45:29;2.93;;;1.13;;
37719;SDS011;23567;50.156;7.700;2024-02-15T08:47:55;4.07;;;1.20;;
37719;SDS011;23567;50.156;7.700;2024-02-15T08:50:20;1.60;;;1.00;;
37719;SDS011;23567;50.156;7.700;2024-02-15T08:52:48;2.83;;;1.30;;
37719;SDS011;23567;50.156;7.700;2024-02-15T08:55:14;2.90;;;1.30;;
37719;SDS011;23567;50.156;7.700;2024-02-15T08:57:39;2.63;;;1.33;;
37719;SDS011;23567;50.156;7.700;2024-02-15T09:00:06;1.20;;;1.10;;
37719;SDS011;23567;50.156;7.700;2024-02-15T09:02:38;3.08;;;1.38;;
37719;SDS011;23567;50.156;7.700;2024-02-15T09:05:03;2.47;;;1.00;;
37719;SDS011;23567;50.156;7.700;2024-02-15T09:07:28;3.43;;;1.33;;
37719;SDS011;23567;50.156;7.700;2024-02-15T09:09:57;1.08;;;1.00;;
37719;SDS011;23567;50.156;7.700;2024-02-15T09:12:22;2.97;;;1.10;;
37719;SDS011;23567;50.156;7.700;2024-02-15T09:14:47;1.80;;;1.10;;
37719;SDS011;23567;50.156;7.700;2024-02-15T09:17:13;1.45;;;1.25;;
37719;SDS011;23567;50.156;7.700;2024-02-15T09:19:38;3.05;;;1.23;;
37719;SDS011;23567;50.156;7.700;2024-02-15T09:22:04;4.83;;;1.13;;
37719;SDS011;23567;50.156;7.700;2024-02-15T09:24:29;2.20;;;1.10;;
37719;SDS011;23567;50.156;7.700;2024-02-15T09:26:55;1.40;;;1.00;;
37719;SDS011;23567;50.156;7.700;2024-02-15T09:29:20;2.90;;;1.10;;
37719;SDS011;23567;50.156;7.700;2024-02-15T09:31:47;1.20;;;0.93;;
37719;SDS011;23567;50.156;7.700;2024-02-15T09:34:12;2.85;;;1.15;;
37719;SDS011;23567;50.156;7.700;2024-02-15T09:36:38;1.40;;;0.93;;
37719;SDS011;23567;50.156;7.700;2024-02-15T09:39:03;3.13;;;0.93;;
37719;SDS011;23567;50.156;7.700;2024-02-15T09:41:29;2.33;;;1.05;;
37719;SDS011;23567;50.156;7.700;2024-02-15T09:43:54;2.30;;;1.08;;
37719;SDS011;23567;50.156;7.700;2024-02-15T09:46:20;4.90;;;1.77;;
37719;SDS011;23567;50.156;7.700;2024-02-15T09:48:47;2.97;;;1.17;;
37719;SDS011;23567;50.156;7.700;2024-02-15T09:51:14;5.40;;;1.53;;
37719;SDS011;23567;50.156;7.700;2024-02-15T09:53:41;4.18;;;1.42;;
37719;SDS011;23567;50.156;7.700;2024-02-15T09:56:06;2.67;;;1.27;;
37719;SDS011;23567;50.156;7.700;2024-02-15T09:58:31;3.93;;;1.37;;
37719;SDS011;23567;50.156;7.700;2024-02-15T10:00:59;3.70;;;1.57;;
37719;SDS011;23567;50.156;7.700;2024-02-15T10:03:25;1.73;;;1.27;;
37719;SDS011;23567;50.156;7.700;2024-02-15T10:05:53;6.40;;;1.20;;
37719;SDS011;23567;50.156;7.700;2024-02-15T10:08:18;2.40;;;1.33;;
37719;SDS011;23567;50.156;7.700;2024-02-15T10:10:46;6.43;;;1.75;;
37719;SDS011;23567;50.156;7.700;2024-02-15T10:13:16;2.67;;;1.20;;
37719;SDS011;23567;50.156;7.700;2024-02-15T10:15:47;2.67;;;1.17;;
37719;SDS011;23567;50.156;7.700;2024-02-15T10:18:13;2.33;;;1.43;;
37719;SDS011;23567;50.156;7.700;2024-02-15T10:20:38;3.10;;;1.37;;
37719;SDS011;23567;50.156;7.700;2024-02-15T10:25:34;4.20;;;1.30;;
37719;SDS011;23567;50.156;7.700;2024-02-15T10:28:02;1.97;;;1.13;;
37719;SDS011;23567;50.156;7.700;2024-02-15T10:30:28;3.75;;;1.40;;
37719;SDS011;23567;50.156;7.700;2024-02-15T10:32:54;2.47;;;1.38;;
37719;SDS011;23567;50.156;7.700;2024-02-15T10:35:22;1.73;;;1.10;;
37719;SDS011;23567;50.156;7.700;2024-02-15T10:37:47;2.55;;;1.20;;
37719;SDS011;23567;50.156;7.700;2024-02-15T10:40:16;2.45;;;1.50;;
37719;SDS011;23567;50.156;7.700;2024-02-15T10:42:42;1.52;;;1.30;;
37719;SDS011;23567;50.156;7.700;2024-02-15T10:45:08;2.35;;;1.13;;
37719;SDS011;23567;50.156;7.700;2024-02-15T10:47:35;3.17;;;1.57;;
37719;SDS011;23567;50.156;7.700;2024-02-15T10:50:02;2.63;;;1.50;;
37719;SDS011;23567;50.156;7.700;2024-02-15T10:52:28;9.63;;;1.60;;
37719;SDS011;23567;50.156;7.700;2024-02-15T10:55:03;3.77;;;1.37;;
37719;SDS011;23567;50.156;7.700;2024-02-15T10:57:29;3.22;;;1.50;;
37719;SDS011;23567;50.156;7.700;2024-02-15T10:59:56;3.17;;;1.50;;
37719;SDS011;23567;50.156;7.700;2024-02-15T11:02:38;1.65;;;1.15;;
37719;SDS011;23567;50.156;7.700;2024-02-15T11:05:08;3.97;;;1.73;;
37719;SDS011;23567;50.156;7.700;2024-02-15T11:07:37;3.35;;;1.33;;
37719;SDS011;23567;50.156;7.700;2024-02-15T11:10:03;2.83;;;1.33;;
37719;SDS011;23567;50.156;7.700;2024-02-15T11:12:33;4.40;;;1.88;;
37719;SDS011;23567;50.156;7.700;2024-02-15T11:14:58;5.57;;;1.73;;
37719;SDS011;23567;50.156;7.700;2024-02-15T11:22:57;4.28;;;1.50;;
37719;SDS011;23567;50.156;7.700;2024-02-15T11:28:32;3.78;;;1.42;;
37719;SDS011;23567;50.156;7.700;2024-02-15T11:30:44;2.03;;;1.10;;
37719;SDS011;23567;50.156;7.700;2024-02-15T11:38:30;2.67;;;1.20;;
37719;SDS011;23567;50.156;7.700;2024-02-15T11:46:06;4.85;;;1.80;;
37719;SDS011;23567;50.156;7.700;2024-02-15T11:48:35;2.97;;;1.60;;
37719;SDS011;23567;50.156;7.700;2024-02-15T11:51:00;4.18;;;1.95;;
37719;SDS011;23567;50.156;7.700;2024-02-15T11:53:26;3.20;;;1.83;;
37719;SDS011;23567;50.156;7.700;2024-02-15T11:55:51;4.80;;;1.83;;
37719;SDS011;23567;50.156;7.700;2024-02-15T11:58:25;3.60;;;2.22;;
37719;SDS011;23567;50.156;7.700;2024-02-15T12:00:59;3.15;;;2.05;;
37719;SDS011;23567;50.156;7.700;2024-02-15T12:03:42;5.23;;;2.70;;
37719;SDS011;23567;50.156;7.700;2024-02-15T12:06:27;5.78;;;3.47;;
37719;SDS011;23567;50.156;7.700;2024-02-15T12:09:10;4.70;;;3.00;;
37719;SDS011;23567;50.156;7.700;2024-02-15T12:11:58;8.90;;;3.63;;
37719;SDS011;23567;50.156;7.700;2024-02-15T12:14:41;6.60;;;3.70;;
37719;SDS011;23567;50.156;7.700;2024-02-15T12:17:25;6.78;;;4.20;;
37719;SDS011;23567;50.156;7.700;2024-02-15T12:20:09;5.72;;;3.80;;
37719;SDS011;23567;50.156;7.700;2024-02-15T12:22:43;7.32;;;4.32;;
37719;SDS011;23567;50.156;7.700;2024-02-15T12:25:13;6.83;;;4.40;;
37719;SDS011;23567;50.156;7.700;2024-02-15T12:27:42;4.57;;;3.23;;
37719;SDS011;23567;50.156;7.700;2024-02-15T12:30:12;7.00;;;3.47;;
37719;SDS011;23567;50.156;7.700;2024-02-15T12:32:38;4.50;;;2.75;;
37719;SDS011;23567;50.156;7.700;2024-02-15T12:35:13;4.40;;;3.07;;
37719;SDS011;23567;50.156;7.700;2024-02-15T12:37:42;3.83;;;2.60;;
37719;SDS011;23567;50.156;7.700;2024-02-15T12:40:14;5.40;;;3.17;;
37719;SDS011;23567;50.156;7.700;2024-02-15T12:42:45;3.53;;;2.95;;
37719;SDS011;23567;50.156;7.700;2024-02-15T12:45:18;5.22;;;3.20;;
37719;SDS011;23567;50.156;7.700;2024-02-15T12:47:50;5.03;;;3.15;;
37719;SDS011;23567;50.156;7.700;2024-02-15T12:50:21;4.80;;;2.93;;
37719;SDS011;23567;50.156;7.700;2024-02-15T12:52:47;5.47;;;3.45;;
37719;SDS011;23567;50.156;7.700;2024-02-15T12:55:17;10.30;;;3.85;;
37719;SDS011;23567;50.156;7.700;2024-02-15T12:57:44;6.15;;;3.47;;
37719;SDS011;23567;50.156;7.700;2024-02-15T13:00:11;7.97;;;3.40;;
37719;SDS011;23567;50.156;7.700;2024-02-15T13:02:38;8.27;;;3.42;;
37719;SDS011;23567;50.156;7.700;2024-02-15T13:05:07;7.37;;;3.53;;
37719;SDS011;23567;50.156;7.700;2024-02-15T13:07:33;3.90;;;3.08;;
37719;SDS011;23567;50.156;7.700;2024-02-15T13:09:59;8.00;;;3.70;;
37719;SDS011;23567;50.156;7.700;2024-02-15T13:12:24;5.60;;;3.27;;
37719;SDS011;23567;50.156;7.700;2024-02-15T13:14:49;3.20;;;2.50;;
37719;SDS011;23567;50.156;7.700;2024-02-15T13:17:15;4.93;;;2.90;;
37719;SDS011;23567;50.156;7.700;2024-02-15T13:19:44;5.03;;;2.90;;
37719;SDS011;23567;50.156;7.700;2024-02-15T13:22:09;5.95;;;3.00;;
37719;SDS011;23567;50.156;7.700;2024-02-15T13:24:34;4.50;;;2.77;;
37719;SDS011;23567;50.156;7.700;2024-02-15T13:27:03;5.07;;;2.80;;
37719;SDS011;23567;50.156;7.700;2024-02-15T13:29:29;7.03;;;3.37;;
37719;SDS011;23567;50.156;7.700;2024-02-15T13:31:54;6.83;;;2.73;;
37719;SDS011;23567;50.156;7.700;2024-02-15T13:34:19;5.03;;;2.70;;
37719;SDS011;23567;50.156;7.700;2024-02-15T13:36:45;5.90;;;2.45;;
37719;SDS011;23567;50.156;7.700;2024-02-15T13:39:11;4.60;;;2.60;;
37719;SDS011;23567;50.156;7.700;2024-02-15T13:41:36;2.77;;;1.90;;
37719;SDS011;23567;50.156;7.700;2024-02-15T13:44:01;3.87;;;2.60;;
37719;SDS011;23567;50.156;7.700;2024-02-15T13:46:26;4.60;;;2.63;;
37719;SDS011;23567;50.156;7.700;2024-02-15T13:48:51;3.63;;;2.23;;
37719;SDS011;23567;50.156;7.700;2024-02-15T13:51:17;6.47;;;2.63;;
37719;SDS011;23567;50.156;7.700;2024-02-15T13:53:42;7.47;;;2.70;;
37719;SDS011;23567;50.156;7.700;2024-02-15T13:56:08;4.22;;;2.30;;
37719;SDS011;23567;50.156;7.700;2024-02-15T13:58:34;7.22;;;2.50;;
37719;SDS011;23567;50.156;7.700;2024-02-15T14:00:59;6.53;;;2.27;;
37719;SDS011;23567;50.156;7.700;2024-02-15T14:03:28;3.50;;;2.03;;
37719;SDS011;23567;50.156;7.700;2024-02-15T14:05:54;3.67;;;2.10;;
37719;SDS011;23567;50.156;7.700;2024-02-15T14:08:19;5.37;;;2.27;;
37719;SDS011;23567;50.156;7.700;2024-02-15T14:10:45;4.60;;;2.22;;
37719;SDS011;23567;50.156;7.700;2024-02-15T14:13:10;4.28;;;2.20;;
37719;SDS011;23567;50.156;7.700;2024-02-15T14:15:39;6.68;;;2.40;;
37719;SDS011;23567;50.156;7.700;2024-02-15T14:18:09;7.60;;;2.95;;
37719;SDS011;23567;50.156;7.700;2024-02-15T14:20:43;6.35;;;2.50;;
37719;SDS011;23567;50.156;7.700;2024-02-15T14:23:09;4.53;;;2.20;;
37719;SDS011;23567;50.156;7.700;2024-02-15T14:25:38;3.05;;;1.95;;
37719;SDS011;23567;50.156;7.700;2024-02-15T14:28:04;5.03;;;2.20;;
37719;SDS011;23567;50.156;7.700;2024-02-15T14:30:32;4.33;;;2.23;;
37719;SDS011;23567;50.156;7.700;2024-02-15T14:33:16;8.60;;;2.55;;
37719;SDS011;23567;50.156;7.700;2024-02-15T14:35:44;3.58;;;2.17;;
37719;SDS011;23567;50.156;7.700;2024-02-15T14:38:10;4.97;;;1.80;;
37719;SDS011;23567;50.156;7.700;2024-02-15T14:40:36;3.45;;;1.85;;
37719;SDS011;23567;50.156;7.700;2024-02-15T14:43:02;4.25;;;1.90;;
37719;SDS011;23567;50.156;7.700;2024-02-15T14:45:29;13.00;;;3.15;;
37719;SDS011;23567;50.156;7.700;2024-02-15T14:47:56;14.60;;;3.17;;
37719;SDS011;23567;50.156;7.700;2024-02-15T14:50:21;16.83;;;4.43;;
37719;SDS011;23567;50.156;7.700;2024-02-15T14:52:48;11.60;;;4.40;;
37719;SDS011;23567;50.156;7.700;2024-02-15T14:55:13;14.43;;;4.27;;
37719;SDS011;23567;50.156;7.700;2024-02-15T14:57:39;12.17;;;3.70;;
37719;SDS011;23567;50.156;7.700;2024-02-15T15:00:05;10.43;;;3.47;;
37719;SDS011;23567;50.156;7.700;2024-02-15T15:02:35;23.42;;;4.45;;
37719;SDS011;23567;50.156;7.700;2024-02-15T15:05:01;13.27;;;4.10;;
37719;SDS011;23567;50.156;7.700;2024-02-15T15:07:45;9.93;;;3.23;;